Time;durP1;ratioP1;P1;durP2;ratioP2;P2;SDS_P1;SDS_P2;PMS_P1;PMS_P2;Temp;Humidity;BMP_temperature;BMP_pressure;BME280_temperature;BME280_humidity;BME280_pressure;Samples;Min_cycle;Max_cycle;Signal;HPM_P1;HPM_P2
2021/03/21 00:01:05;;;;;;;13.16;7.09;;;;;;;-1.45;69.46;99426.95;346528;115;1963973;-72
2021/03/21 00:02:11;;;;;;;11.48;6.92;;;;;;;-1.45;69.90;99428.77;315774;115;2194985;-72
2021/03/21 00:03:17;;;;;;;12.48;6.61;;;;;;;-1.49;69.81;99427.34;347161;115;1962020;-71
2021/03/21 00:04:24;;;;;;;13.33;6.44;;;;;;;-1.48;70.08;99421.06;344481;116;1961908;-72
2021/03/21 00:05:29;;;;;;;12.03;6.35;;;;;;;-1.51;69.90;99427.47;334406;116;2213820;-72
2021/03/21 00:06:35;;;;;;;10.61;6.15;;;;;;;-1.53;69.67;99417.98;344212;116;1962051;-72
2021/03/21 00:07:42;;;;;;;12.78;7.18;;;;;;;-1.55;70.14;99424.27;347603;114;1961963;-72
2021/03/21 00:08:48;;;;;;;11.78;6.39;;;;;;;-1.48;70.24;99423.71;327758;114;2387293;-72
2021/03/21 00:09:53;;;;;;;11.85;6.36;;;;;;;-1.48;70.34;99421.06;344601;115;1962942;-72
2021/03/21 00:11:01;;;;;;;10.54;5.48;;;;;;;-1.47;70.32;99420.94;348560;112;1960650;-71
2021/03/21 00:12:08;;;;;;;11.34;5.74;;;;;;;-1.38;70.10;99427.23;341261;112;2288081;-71
2021/03/21 00:13:13;;;;;;;10.23;5.21;;;;;;;-1.30;69.98;99418.61;359608;110;1961970;-71
2021/03/21 00:14:19;;;;;;;10.28;5.61;;;;;;;-1.18;69.66;99418.36;359962;113;1961939;-70
2021/03/21 00:15:25;;;;;;;11.13;6.43;;;;;;;-1.11;69.40;99419.50;329522;113;2536024;-70
2021/03/21 00:16:32;;;;;;;9.97;5.56;;;;;;;-1.07;69.12;99413.91;357313;113;1962018;-71
2021/03/21 00:17:40;;;;;;;11.62;6.79;;;;;;;-1.07;69.20;99421.86;351597;113;2858032;-71
2021/03/21 00:18:47;;;;;;;10.12;5.79;;;;;;;-1.05;68.96;99414.63;355791;113;1962910;-71
2021/03/21 00:19:53;;;;;;;10.51;6.43;;;;;;;-1.07;68.89;99420.05;317677;113;2940953;-70
2021/03/21 00:21:00;;;;;;;13.07;5.86;;;;;;;-1.12;68.87;99411.67;356098;113;1960981;-71
2021/03/21 00:22:06;;;;;;;20.19;6.74;;;;;;;-1.16;68.89;99420.89;353854;113;1961883;-71
2021/03/21 00:23:12;;;;;;;13.09;6.06;;;;;;;-1.19;68.95;99405.23;329026;115;2482068;-70
2021/03/21 00:24:17;;;;;;;11.49;6.63;;;;;;;-1.20;69.02;99409.70;349587;113;1961940;-70
2021/03/21 00:25:27;;;;;;;12.16;6.73;;;;;;;-1.25;68.96;99411.92;355718;113;1962035;-71
2021/03/21 00:26:33;;;;;;;11.88;6.36;;;;;;;-1.26;68.95;99399.66;355777;113;1963298;-71
2021/03/21 00:27:38;;;;;;;13.16;7.19;;;;;;;-1.26;68.94;99407.61;355641;113;1962957;-71
2021/03/21 00:28:44;;;;;;;12.13;6.82;;;;;;;-1.29;69.15;99402.59;332574;113;2496994;-70
2021/03/21 00:29:49;;;;;;;11.49;6.42;;;;;;;-1.30;69.07;99400.89;351493;112;1962031;-70
2021/03/21 00:30:56;;;;;;;13.09;6.74;;;;;;;-1.34;68.98;99399.51;354236;113;1961976;-71
2021/03/21 00:32:03;;;;;;;13.93;6.76;;;;;;;-1.38;69.21;99400.73;341012;113;2283944;-71
2021/03/21 00:33:13;;;;;;;11.29;6.41;;;;;;;-1.42;69.53;99408.13;356341;113;1961931;-70
2021/03/21 00:34:20;;;;;;;11.86;6.19;;;;;;;-1.41;69.43;99401.84;354582;113;1961908;-70
2021/03/21 00:35:26;;;;;;;15.34;7.88;;;;;;;-1.44;69.20;99407.42;323880;114;2581942;-70
2021/03/21 00:36:32;;;;;;;11.45;6.01;;;;;;;-1.49;69.67;99399.04;353344;113;1962055;-70
2021/03/21 00:37:40;;;;;;;12.42;6.81;;;;;;;-1.45;69.53;99404.92;351663;108;1960755;-71
2021/03/21 00:38:52;;;;;;;11.52;6.37;;;;;;;-1.49;69.47;99400.86;348153;115;1961991;-71
2021/03/21 00:39:58;;;;;;;10.26;6.21;;;;;;;-1.52;69.67;99403.78;349233;116;1963889;-70
2021/03/21 00:41:06;;;;;;;11.45;6.49;;;;;;;-1.50;69.78;99405.33;345941;114;1961969;-70
2021/03/21 00:42:12;;;;;;;11.92;6.50;;;;;;;-1.51;69.67;99395.68;348409;111;2895823;-70
2021/03/21 00:43:18;;;;;;;11.24;6.20;;;;;;;-1.54;69.83;99395.95;333409;115;1961982;-70
2021/03/21 00:44:23;;;;;;;12.84;6.57;;;;;;;-1.56;69.63;99397.92;347252;117;1962985;-70
2021/03/21 00:45:29;;;;;;;12.18;6.69;;;;;;;-1.59;69.79;99391.09;333607;121;1961926;-70
2021/03/21 00:46:35;;;;;;;11.12;6.63;;;;;;;-1.62;70.11;99396.63;290461;122;2230973;-70
2021/03/21 00:47:41;;;;;;;10.52;5.99;;;;;;;-1.60;70.12;99399.16;327398;124;1962944;-70
2021/03/21 00:48:47;;;;;;;10.48;5.42;;;;;;;-1.64;70.20;99401.25;340711;117;1961973;-70
2021/03/21 00:49:53;;;;;;;13.02;5.57;;;;;;;-1.63;70.47;99402.08;338008;117;2887903;-71
2021/03/21 00:51:00;;;;;;;10.24;5.34;;;;;;;-1.59;70.16;99408.77;329996;119;1961920;-72
2021/03/21 00:52:06;;;;;;;9.82;5.59;;;;;;;-1.54;70.46;99393.31;339570;117;1961884;-71
2021/03/21 00:53:17;;;;;;;11.76;5.97;;;;;;;-1.47;70.36;99402.40;342797;118;1961979;31
2021/03/21 00:54:22;;;;;;;9.88;5.33;;;;;;;-1.41;70.19;99396.55;316504;113;2087000;-71
2021/03/21 00:55:27;;;;;;;10.88;5.91;;;;;;;-1.27;69.95;99394.48;342918;110;1961820;-70
2021/03/21 00:56:38;;;;;;;10.16;5.86;;;;;;;-1.20;69.69;99385.02;344321;118;1961978;-71
2021/03/21 00:57:45;;;;;;;10.54;5.32;;;;;;;-1.11;69.27;99397.45;344695;116;1961953;-71
2021/03/21 00:59:01;;;;;;;10.37;5.44;;;;;;;-1.09;69.25;99389.35;316394;114;2211930;-71
2021/03/21 01:00:19;;;;;;;10.61;5.51;;;;;;;-1.07;69.27;99392.70;343474;115;1962994;-71
2021/03/21 01:01:26;;;;;;;13.08;5.86;;;;;;;-1.12;69.10;99401.06;339693;115;1964960;-71
2021/03/21 01:02:45;;;;;;;12.89;6.68;;;;;;;-1.20;69.27;99392.97;349876;115;1962903;-71
2021/03/21 01:03:53;;;;;;;11.84;6.39;;;;;;;-1.24;69.36;99397.72;321397;114;2474970;-71
2021/03/21 01:04:58;;;;;;;12.23;6.01;;;;;;;-1.28;69.39;99395.47;342646;116;1963924;-71
2021/03/21 01:06:07;;;;;;;10.63;5.88;;;;;;;-1.33;69.32;99399.34;340724;116;1962916;-71
2021/03/21 01:07:12;;;;;;;12.58;6.65;;;;;;;-1.38;69.34;99395.44;335041;118;1962017;-70
2021/03/21 01:08:20;;;;;;;13.92;5.96;;;;;;;-1.44;69.88;99401.30;337228;118;1961930;-70
2021/03/21 01:09:26;;;;;;;10.43;5.78;;;;;;;-1.50;69.89;99396.55;336800;116;1961949;-70
2021/03/21 01:10:35;;;;;;;12.10;6.93;;;;;;;-1.52;70.08;99399.31;342895;117;1961949;-69
2021/03/21 01:11:41;;;;;;;12.22;6.32;;;;;;;-1.51;70.17;99402.80;343833;111;1961983;-71
2021/03/21 01:12:53;;;;;;;10.44;5.41;;;;;;;-1.55;70.34;99394.30;347050;117;1961883;-70
2021/03/21 01:14:00;;;;;;;12.14;5.41;;;;;;;-1.59;70.36;99401.69;307505;117;2033224;-69
2021/03/21 01:15:06;;;;;;;9.96;5.19;;;;;;;-1.49;70.21;99392.91;347539;117;1963055;-69
2021/03/21 01:16:16;;;;;;;12.63;6.32;;;;;;;-1.45;70.03;99386.38;298084;117;2213240;-70
2021/03/21 01:17:22;;;;;;;9.32;4.63;;;;;;;-1.43;70.28;99384.41;308202;115;2913911;-70
2021/03/21 01:18:30;;;;;;;11.43;6.18;;;;;;;-1.34;69.99;99386.26;322860;118;1961931;-70
2021/03/21 01:19:35;;;;;;;12.58;5.82;;;;;;;-1.27;69.88;99389.18;342386;116;1963094;-70
2021/03/21 01:20:41;;;;;;;10.54;5.07;;;;;;;-1.24;69.71;99381.81;330098;117;2328987;-70
2021/03/21 01:21:47;;;;;;;9.19;5.00;;;;;;;-1.20;69.55;99377.06;321980;112;1960597;-70
2021/03/21 01:22:54;;;;;;;12.16;5.77;;;;;;;-1.24;69.60;99376.52;352669;115;1964904;-70
2021/03/21 01:23:59;;;;;;;11.19;6.42;;;;;;;-1.27;69.61;99381.23;325595;114;2211983;-69
2021/03/21 01:25:07;;;;;;;10.48;6.44;;;;;;;-1.31;69.63;99374.55;337206;117;1961930;-70
2021/03/21 01:26:19;;;;;;;11.52;6.12;;;;;;;-1.35;69.67;99377.48;345147;115;1964051;-70
2021/03/21 01:27:24;;;;;;;10.28;5.74;;;;;;;-1.38;69.54;99384.84;356079;111;1962003;-70
2021/03/21 01:28:33;;;;;;;10.36;5.75;;;;;;;-1.42;69.68;99375.51;350216;111;1961608;-71
2021/03/21 01:29:38;;;;;;;12.56;6.50;;;;;;;-1.49;69.82;99377.84;342239;116;1961961;-70
2021/03/21 01:30:45;;;;;;;15.06;7.28;;;;;;;-1.55;69.68;99375.75;351698;113;1961986;-70
2021/03/21 01:31:50;;;;;;;12.48;6.72;;;;;;;-1.65;70.64;99383.66;324691;114;2232964;-70
2021/03/21 01:32:57;;;;;;;11.61;5.63;;;;;;;-1.70;70.59;99388.52;352225;113;1961933;-70
2021/03/21 01:34:03;;;;;;;12.36;6.06;;;;;;;-1.76;70.87;99378.48;357023;111;1963325;-70
2021/03/21 01:35:10;;;;;;;11.82;5.71;;;;;;;-1.80;70.58;99379.70;361352;112;1961946;-70
2021/03/21 01:36:25;;;;;;;10.97;5.83;;;;;;;-1.80;71.13;99379.70;359709;112;1961971;-70
2021/03/21 01:37:30;;;;;;;10.09;5.34;;;;;;;-1.75;71.24;99387.25;360895;113;1962019;-70
2021/03/21 01:38:45;;;;;;;10.26;5.58;;;;;;;-1.64;71.00;99385.36;360392;111;1961992;-70
2021/03/21 01:39:50;;;;;;;9.61;4.85;;;;;;;-1.51;70.71;99374.48;364422;107;1961949;-72
2021/03/21 01:41:00;;;;;;;9.24;5.25;;;;;;;-1.45;70.40;99381.92;362860;110;1964038;-71
2021/03/21 01:42:11;;;;;;;11.33;5.19;;;;;;;-1.42;70.41;99375.51;355474;114;1961038;-71
2021/03/21 01:43:20;;;;;;;8.87;4.72;;;;;;;-1.39;70.09;99381.36;332103;113;2424946;-72
2021/03/21 01:44:26;;;;;;;10.74;5.71;;;;;;;-1.30;70.24;99381.51;356698;112;1961953;-71
2021/03/21 01:45:38;;;;;;;10.34;4.26;;;;;;;-1.30;69.70;99374.39;303003;112;2201460;-72
2021/03/21 01:46:56;;;;;;;9.98;5.26;;;;;;;-1.23;70.01;99364.92;350067;106;1962280;-70
2021/03/21 01:48:05;;;;;;;8.58;4.33;;;;;;;-1.18;69.98;99375.13;342751;117;1963907;-69
2021/03/21 01:49:20;;;;;;;9.06;4.91;;;;;;;-1.15;69.67;99373.02;345780;109;1960864;-70
2021/03/21 01:50:50;;;;;;;9.13;5.16;;;;;;;-1.16;69.45;99374.02;356505;113;1963010;-70
2021/03/21 01:52:07;;;;;;;10.89;5.38;;;;;;;-1.16;69.18;99370.53;351390;112;1961983;-71
2021/03/21 01:53:15;;;;;;;12.13;5.92;;;;;;;-1.25;69.42;99372.17;323735;118;2350001;-70
2021/03/21 01:54:24;;;;;;;10.72;5.92;;;;;;;-1.28;69.24;99364.50;342107;117;1961986;-71
2021/03/21 01:55:30;;;;;;;10.58;5.21;;;;;;;-1.35;69.34;99371.31;338851;119;1961023;-71
2021/03/21 01:56:40;;;;;;;9.91;5.22;;;;;;;-1.41;69.29;99369.22;334715;117;1963048;-71
2021/03/21 01:57:46;;;;;;;10.59;5.61;;;;;;;-1.51;69.60;99368.36;313887;117;2951069;-71
2021/03/21 01:59:09;;;;;;;11.87;6.07;;;;;;;-1.58;69.68;99363.62;334508;117;1962003;-69
2021/03/21 02:00:15;;;;;;;10.77;6.06;;;;;;;-1.60;69.77;99362.08;332456;114;2198947;-70
2021/03/21 02:01:24;;;;;;;13.58;6.55;;;;;;;-1.67;69.85;99367.06;354276;114;1961987;-69
2021/03/21 02:02:30;;;;;;;11.83;6.96;;;;;;;-1.70;70.21;99362.04;351432;114;1962948;-71
2021/03/21 02:03:35;;;;;;;11.67;6.69;;;;;;;-1.80;70.48;99358.52;351182;114;1961958;-70
2021/03/21 02:04:41;;;;;;;11.39;6.17;;;;;;;-1.86;70.98;99359.07;353708;109;1960592;-69
2021/03/21 02:05:51;;;;;;;11.25;6.14;;;;;;;-1.88;70.93;99353.92;324136;112;2554860;-71
2021/03/21 02:07:09;;;;;;;12.59;5.80;;;;;;;-1.83;70.76;99350.85;334048;110;2366974;-72
2021/03/21 02:08:40;;;;;;;11.73;5.77;;;;;;;-1.82;71.02;99352.55;348024;115;1960969;-71
2021/03/21 02:09:52;;;;;;;10.27;4.97;;;;;;;-1.71;70.71;99356.90;330590;116;2341962;-72
2021/03/21 02:11:07;;;;;;;10.03;5.18;;;;;;;-1.55;70.30;99352.75;350023;114;1961001;-72
2021/03/21 02:12:41;;;;;;;9.63;4.87;;;;;;;-1.49;69.94;99348.70;347918;114;1961938;-72
2021/03/21 02:14:09;;;;;;;9.69;4.70;;;;;;;-1.43;69.94;99344.67;346672;117;1960775;-72
2021/03/21 02:15:33;;;;;;;10.06;5.14;;;;;;;-1.41;69.84;99343.56;307976;115;2207802;-72
2021/03/21 02:16:48;;;;;;;10.93;5.31;;;;;;;-1.36;69.70;99345.80;317173;117;1962779;-72
2021/03/21 02:17:58;;;;;;;11.84;5.67;;;;;;;-1.36;69.46;99343.98;346571;117;1962016;-72
2021/03/21 02:19:31;;;;;;;10.57;5.71;;;;;;;-1.39;69.31;99343.44;346953;115;1960985;-72
2021/03/21 02:20:43;;;;;;;11.82;5.35;;;;;;;-1.46;69.43;99335.19;319028;115;2237902;-72
2021/03/21 02:21:50;;;;;;;;;;;;;;;-1.56;69.59;99340.48;350500;113;1959829;-72
2021/03/21 02:23:07;;;;;;;13.03;5.63;;;;;;;-1.59;69.72;99345.20;324467;115;2201924;-72
2021/03/21 02:24:52;;;;;;;10.64;5.49;;;;;;;-1.66;69.58;99336.98;346722;117;1960926;-71
2021/03/21 02:26:33;;;;;;;10.71;5.62;;;;;;;-1.73;70.02;99343.78;346002;117;1963384;-72
2021/03/21 02:27:51;;;;;;;11.85;5.81;;;;;;;-1.79;69.71;99336.39;334536;117;1966757;-72
2021/03/21 02:29:16;;;;;;;9.68;5.71;;;;;;;-1.88;70.42;99343.34;337685;117;2898931;-71
2021/03/21 02:30:43;;;;;;;10.68;5.63;;;;;;;-1.94;70.67;99343.86;321938;117;2447959;-71
2021/03/21 02:32:13;;;;;;;8.17;4.33;;;;;;;-1.94;70.90;99343.02;338582;118;1962018;-71
2021/03/21 02:33:22;;;;;;;9.41;5.65;;;;;;;-1.96;71.07;99335.20;335264;119;1964008;-71
2021/03/21 02:34:37;;;;;;;12.58;5.40;;;;;;;-1.88;70.81;99338.05;338709;117;1961902;-71
2021/03/21 02:35:48;;;;;;;10.51;5.05;;;;;;;-1.79;70.73;99333.73;334647;119;1961995;-71
2021/03/21 02:37:15;;;;;;;10.39;4.79;;;;;;;-1.70;70.42;99337.37;336376;119;1962042;-70
2021/03/21 02:38:30;;;;;;;9.37;4.64;;;;;;;-1.65;70.38;99335.99;339782;117;1962020;-70
2021/03/21 02:39:41;;;;;;;9.70;4.73;;;;;;;-1.62;70.24;99335.72;330728;122;1964006;-70
2021/03/21 02:41:03;;;;;;;8.96;4.50;;;;;;;-1.49;69.85;99334.63;332505;119;1961973;-70
2021/03/21 02:42:12;;;;;;;10.86;4.96;;;;;;;-1.41;69.63;99332.97;319561;117;1963009;-70
2021/03/21 02:43:21;;;;;;;9.85;5.33;;;;;;;-1.37;69.40;99329.08;299345;117;2160273;-70
2021/03/21 02:44:30;;;;;;;8.64;4.70;;;;;;;-1.30;69.32;99328.52;320903;117;2372023;-70
2021/03/21 02:45:49;;;;;;;11.24;5.45;;;;;;;-1.34;69.13;99322.67;297476;119;2851973;-70
2021/03/21 02:47:08;;;;;;;9.88;5.36;;;;;;;-1.42;69.11;99327.82;347537;117;1962016;-71
2021/03/21 02:48:18;;;;;;;10.18;5.33;;;;;;;-1.50;69.40;99328.50;336797;116;1962949;-71
2021/03/21 02:49:36;;;;;;;9.93;5.07;;;;;;;-1.55;69.36;99330.72;339759;116;1961928;-70
2021/03/21 02:51:01;;;;;;;10.98;5.44;;;;;;;-1.64;69.33;99324.45;339775;116;1961949;-70
2021/03/21 02:52:11;;;;;;;11.47;5.25;;;;;;;-1.77;70.17;99326.51;342103;116;1964915;-70
2021/03/21 02:53:23;;;;;;;9.41;4.93;;;;;;;-1.83;69.88;99319.91;341968;116;1961983;-69
2021/03/21 02:54:32;;;;;;;10.94;5.67;;;;;;;-1.90;70.37;99331.20;336349;117;1963051;-70
2021/03/21 02:55:40;;;;;;;9.57;4.79;;;;;;;-1.89;70.03;99332.87;314979;116;1963013;-70
2021/03/21 02:56:50;;;;;;;9.58;5.17;;;;;;;-1.90;70.41;99326.74;312318;119;2569942;-71
2021/03/21 02:58:00;;;;;;;12.24;5.14;;;;;;;-1.94;70.70;99320.03;298113;117;2773062;-70
2021/03/21 02:59:19;;;;;;;9.61;5.02;;;;;;;-1.89;70.54;99320.47;305926;117;2678098;-70
2021/03/21 03:00:30;;;;;;;8.44;4.48;;;;;;;-1.82;70.37;99311.02;345490;118;1962015;-68
2021/03/21 03:01:48;;;;;;;9.28;4.44;;;;;;;-1.77;70.36;99315.91;320937;116;1962954;-70
2021/03/21 03:02:58;;;;;;;8.31;4.39;;;;;;;-1.68;70.09;99309.79;295162;118;2204029;-69
2021/03/21 03:04:08;;;;;;;10.22;4.95;;;;;;;-1.60;69.70;99312.59;322226;115;2502969;-70
2021/03/21 03:05:23;;;;;;;9.55;4.82;;;;;;;-1.58;69.76;99308.00;307976;116;2808997;-70
2021/03/21 03:06:32;;;;;;;10.84;4.68;;;;;;;-1.52;69.63;99305.78;311297;119;1964042;-70
2021/03/21 03:07:54;;;;;;;8.21;4.67;;;;;;;-1.51;69.47;99310.09;307242;116;2181175;-70
2021/03/21 03:09:09;;;;;;;9.48;5.21;;;;;;;-1.53;69.11;99307.59;348855;116;1962019;-71
2021/03/21 03:10:20;;;;;;;9.19;4.99;;;;;;;-1.62;69.41;99311.88;349465;116;1964017;-70
2021/03/21 03:11:38;;;;;;;10.10;5.16;;;;;;;-1.68;69.56;99312.44;325887;116;2413094;-71
2021/03/21 03:13:05;;;;;;;9.57;5.01;;;;;;;-1.71;69.60;99309.23;350144;116;1962022;-70
2021/03/21 03:14:17;;;;;;;9.44;4.60;;;;;;;-1.77;69.61;99321.21;345268;116;1962056;-71
2021/03/21 03:15:23;;;;;;;;;;;;;;;-1.88;69.84;99314.22;317789;116;2954017;-71
2021/03/21 03:16:49;;;;;;;10.21;5.22;;;;;;;-1.95;70.14;99315.72;340956;116;1961968;-71
2021/03/21 03:18:19;;;;;;;10.19;5.33;;;;;;;-1.99;69.89;99317.78;327674;113;1960828;-71
2021/03/21 03:19:50;;;;;;;9.58;4.63;;;;;;;-2.05;69.98;99317.49;343537;115;1962000;-70
2021/03/21 03:21:02;;;;;;;9.82;5.57;;;;;;;-2.05;70.15;99317.49;311410;115;2231900;-71
2021/03/21 03:22:28;;;;;;;9.08;5.45;;;;;;;-2.06;70.39;99314.02;347837;115;1962012;-69
2021/03/21 03:23:37;;;;;;;9.04;4.86;;;;;;;-2.09;70.61;99313.42;348338;117;1961952;-71
2021/03/21 03:25:01;;;;;;;9.18;4.81;;;;;;;-2.05;70.45;99312.20;347455;115;1961913;-70
2021/03/21 03:26:17;;;;;;;8.41;4.01;;;;;;;-2.02;70.33;99320.70;342483;117;1964009;-71
2021/03/21 03:27:30;;;;;;;9.71;4.94;;;;;;;-1.94;70.09;99312.09;348492;115;1962021;-71
2021/03/21 03:28:42;;;;;;;10.55;5.19;;;;;;;-1.88;70.10;99316.00;347792;115;1961932;-71
2021/03/21 03:29:51;;;;;;;7.81;4.07;;;;;;;-1.80;69.81;99303.78;315998;117;2555938;-71
2021/03/21 03:31:07;;;;;;;10.37;5.22;;;;;;;-1.75;69.61;99310.47;310645;116;2640932;-71
2021/03/21 03:32:14;;;;;;;9.47;4.97;;;;;;;-1.66;69.55;99307.84;307264;121;2597943;-71
2021/03/21 03:33:22;;;;;;;9.48;5.43;;;;;;;-1.63;69.24;99304.09;336433;121;1962029;-70
2021/03/21 03:34:30;;;;;;;8.73;4.95;;;;;;;-1.63;69.06;99301.44;337623;117;1962028;-71
2021/03/21 03:35:36;;;;;;;9.19;5.40;;;;;;;-1.69;69.00;99305.48;316240;117;1962009;-70
2021/03/21 03:36:44;;;;;;;9.69;5.61;;;;;;;-1.80;69.24;99295.84;344588;118;1962937;-70
2021/03/21 03:37:49;;;;;;;12.36;5.97;;;;;;;-1.92;69.72;99301.38;318006;117;1962079;-70
2021/03/21 03:38:55;;;;;;;9.46;5.76;;;;;;;-1.94;69.73;99295.38;344617;115;1962049;-70
2021/03/21 03:40:00;;;;;;;10.17;5.82;;;;;;;-1.97;69.69;99293.84;346631;117;1961996;-70
2021/03/21 03:41:09;;;;;;;11.57;6.19;;;;;;;-2.00;69.81;99296.76;345325;115;1962005;-70
2021/03/21 03:42:36;;;;;;;11.21;5.94;;;;;;;-2.09;70.16;99306.34;348654;115;1961984;-70
2021/03/21 03:43:58;;;;;;;9.91;4.96;;;;;;;-2.12;70.29;99313.70;348172;115;1961905;-70
2021/03/21 03:45:10;;;;;;;9.31;5.29;;;;;;;-2.17;70.20;99302.67;346062;115;1961974;-71
2021/03/21 03:46:33;;;;;;;10.63;5.01;;;;;;;-2.23;70.75;99302.23;323660;117;1961999;-71
2021/03/21 03:47:55;;;;;;;8.41;4.72;;;;;;;-2.18;70.77;99295.72;296671;117;2205895;-71
2021/03/21 03:49:04;;;;;;;9.91;4.99;;;;;;;-2.07;70.50;99299.09;346472;115;1964966;-71
2021/03/21 03:50:14;;;;;;;9.67;4.66;;;;;;;-2.01;70.36;99305.68;347806;116;1961893;-70
2021/03/21 03:51:49;;;;;;;9.27;4.51;;;;;;;-1.96;70.32;99292.85;347721;115;1961938;-70
2021/03/21 03:53:04;;;;;;;11.15;4.82;;;;;;;-1.87;70.03;99292.05;340621;118;1961967;-70
2021/03/21 03:54:31;;;;;;;7.92;4.37;;;;;;;-1.75;69.74;99290.11;333879;120;1961941;-70
2021/03/21 03:55:55;;;;;;;10.02;5.16;;;;;;;-1.69;69.52;99300.18;303359;112;2143684;-72
2021/03/21 03:57:17;;;;;;;9.53;5.04;;;;;;;-1.63;69.10;99302.27;335262;114;2300007;-71
2021/03/21 03:58:39;;;;;;;10.48;5.74;;;;;;;-1.60;68.96;99294.05;345459;114;1962036;-72
2021/03/21 04:00:07;;;;;;;9.97;5.50;;;;;;;-1.68;69.18;99293.90;321240;114;1963921;-72
2021/03/21 04:01:33;;;;;;;9.32;5.30;;;;;;;-1.69;68.97;99294.89;342846;116;1965065;-72
2021/03/21 04:03:00;;;;;;;9.35;5.16;;;;;;;-1.83;69.34;99300.55;329412;117;1964936;-74
2021/03/21 04:04:29;;;;;;;11.74;6.18;;;;;;;-1.89;69.29;99287.87;345897;117;1962034;-73
2021/03/21 04:05:48;;;;;;;10.67;5.72;;;;;;;-1.96;69.37;99290.20;343365;118;1961960;-71
2021/03/21 04:07:06;;;;;;;10.66;5.77;;;;;;;-2.05;69.90;99285.73;340261;114;1962974;-69
2021/03/21 04:08:15;;;;;;;10.02;6.29;;;;;;;-2.13;70.29;99296.16;351732;114;1963906;-70
2021/03/21 04:09:33;;;;;;;13.10;6.12;;;;;;;-2.16;70.21;99293.78;328262;110;1962970;-71
2021/03/21 04:10:51;;;;;;;10.23;5.38;;;;;;;-2.21;70.03;99289.72;319792;112;2616031;-72
2021/03/21 04:12:07;;;;;;;9.87;5.17;;;;;;;-2.19;70.40;99296.70;341615;115;1962004;-71
2021/03/21 04:13:17;;;;;;;10.31;5.06;;;;;;;-2.19;70.89;99294.89;313810;117;2478075;-70
2021/03/21 04:14:34;;;;;;;10.38;5.17;;;;;;;-2.09;70.36;99303.70;299486;114;2745821;-70
2021/03/21 04:15:46;;;;;;;10.84;6.14;;;;;;;-2.02;70.27;99288.11;349503;114;1961964;-70
2021/03/21 04:17:10;;;;;;;10.19;5.54;;;;;;;-1.91;70.09;99287.16;337186;113;2228087;-70
2021/03/21 04:18:27;;;;;;;8.74;4.79;;;;;;;-1.80;69.72;99285.25;317882;114;1961866;-71
2021/03/21 04:19:38;;;;;;;11.78;5.27;;;;;;;-1.70;69.54;99284.42;356430;112;1962014;-70
2021/03/21 04:20:49;;;;;;;10.25;5.57;;;;;;;-1.64;69.26;99290.02;317290;110;2804852;-71
2021/03/21 04:21:58;;;;;;;11.29;5.95;;;;;;;-1.55;68.93;99296.30;323381;112;2754007;-70
2021/03/21 04:23:19;;;;;;;11.50;5.79;;;;;;;-1.59;68.66;99292.23;330260;110;2477632;-71
2021/03/21 04:24:38;;;;;;;9.01;5.27;;;;;;;-1.62;68.64;99293.34;340300;118;1961976;-71
2021/03/21 04:25:49;;;;;;;11.95;5.96;;;;;;;-1.67;68.56;99290.27;305857;111;2048031;-69
2021/03/21 04:27:01;;;;;;;10.33;5.81;;;;;;;-1.80;68.94;99289.69;343209;117;1961927;-70
2021/03/21 04:28:11;;;;;;;12.47;7.04;;;;;;;-1.85;69.12;99287.47;344570;116;1961953;-70
2021/03/21 04:29:20;;;;;;;12.86;6.99;;;;;;;-1.84;68.99;99283.00;335352;112;1961958;-70
2021/03/21 04:30:35;;;;;;;13.24;5.87;;;;;;;-1.90;69.09;99272.97;328599;113;1963970;-70
2021/03/21 04:31:42;;;;;;;15.82;7.27;;;;;;;-1.98;69.59;99286.88;343298;113;1964876;-69
2021/03/21 04:32:52;;;;;;;11.34;6.82;;;;;;;-2.02;69.51;99282.81;355677;113;1962042;-70
2021/03/21 04:34:02;;;;;;;12.70;6.36;;;;;;;-2.04;69.30;99277.67;336392;113;2406990;-70
2021/03/21 04:35:29;;;;;;;11.66;6.75;;;;;;;-2.05;69.48;99280.44;319468;113;2689930;-70
2021/03/21 04:36:46;;;;;;;10.99;6.12;;;;;;;-2.06;69.51;99292.02;335979;111;2883968;-70
2021/03/21 04:38:01;;;;;;;12.94;6.81;;;;;;;-2.11;69.68;99289.77;321203;115;1999273;-71
2021/03/21 04:39:16;;;;;;;11.10;5.99;;;;;;;-2.12;69.67;99287.23;347840;117;1961954;-71
2021/03/21 04:40:23;;;;;;;11.79;6.30;;;;;;;-2.15;69.79;99288.34;345779;117;1961960;-70
2021/03/21 04:41:33;;;;;;;12.87;7.80;;;;;;;-2.16;69.62;99277.91;305910;117;2716988;-70
2021/03/21 04:42:54;;;;;;;13.12;6.48;;;;;;;-2.18;69.80;99285.97;310261;119;2539939;-70
2021/03/21 04:44:06;;;;;;;13.24;6.46;;;;;;;-2.16;69.43;99281.39;345619;117;1962870;-70
2021/03/21 04:45:16;;;;;;;14.01;8.08;;;;;;;-2.16;69.56;99289.33;330017;111;2387901;-69
2021/03/21 04:46:25;;;;;;;12.27;7.01;;;;;;;-2.15;69.21;99275.11;326905;116;2398063;-70
2021/03/21 04:47:38;;;;;;;11.15;6.16;;;;;;;-2.15;69.28;99290.98;313668;115;2214076;-70
2021/03/21 04:48:44;;;;;;;13.89;7.74;;;;;;;-2.16;69.17;99286.68;345876;115;1961733;-70
2021/03/21 04:49:50;;;;;;;11.89;7.55;;;;;;;-2.21;69.70;99280.95;330196;115;2204978;-70
2021/03/21 04:51:10;;;;;;;13.21;6.96;;;;;;;-2.19;69.63;99278.18;343136;116;1962015;-69
2021/03/21 04:52:42;;;;;;;12.32;6.63;;;;;;;-2.17;69.45;99277.08;349199;114;1961976;-72
2021/03/21 04:53:54;;;;;;;13.23;6.59;;;;;;;-2.16;69.32;99276.09;336172;117;2234059;-71
2021/03/21 04:55:03;;;;;;;13.48;7.57;;;;;;;-2.14;69.14;99279.45;329787;116;1961947;-72
2021/03/21 04:56:30;;;;;;;14.62;7.96;;;;;;;-2.12;69.02;99274.00;344678;116;1963896;-72
2021/03/21 04:57:42;;;;;;;12.37;6.55;;;;;;;-2.13;69.29;99274.98;315474;116;2557037;-73
2021/03/21 04:58:59;;;;;;;11.90;6.88;;;;;;;-2.11;69.02;99284.47;327315;116;2398055;-72
2021/03/21 05:00:20;;;;;;;12.96;7.23;;;;;;;-2.10;68.91;99269.42;328465;116;1960790;-72
2021/03/21 05:01:29;;;;;;;12.03;7.47;;;;;;;-2.12;69.13;99268.72;349579;114;1961896;-72
2021/03/21 05:02:37;;;;;;;12.98;7.28;;;;;;;-2.12;69.32;99271.36;351189;113;1961860;-72
2021/03/21 05:03:49;;;;;;;12.80;6.76;;;;;;;-2.09;69.11;99277.24;327994;112;1960698;-72
2021/03/21 05:05:00;;;;;;;;;;;;;;;-2.06;68.92;99271.67;351909;111;1959796;-70
2021/03/21 05:06:09;;;;;;;12.52;7.14;;;;;;;-2.03;68.77;99281.16;329597;117;2365037;-70
2021/03/21 05:07:27;;;;;;;14.43;7.17;;;;;;;-1.99;68.67;99280.72;324769;117;2238977;-69
2021/03/21 05:08:39;;;;;;;13.37;7.54;;;;;;;-1.95;68.71;99283.95;336585;119;1962054;-69
2021/03/21 05:09:48;;;;;;;12.21;6.94;;;;;;;-1.90;68.43;99283.56;337720;111;1959672;-70
2021/03/21 05:11:01;;;;;;;12.48;6.53;;;;;;;-1.86;68.37;99279.65;345825;115;1961938;-70
2021/03/21 05:12:20;;;;;;;14.00;7.11;;;;;;;-1.83;68.49;99282.84;315271;115;1985905;-70
2021/03/21 05:13:44;;;;;;;12.72;7.21;;;;;;;-1.77;68.31;99276.20;345625;116;1961967;-70
2021/03/21 05:15:06;;;;;;;12.77;7.28;;;;;;;-1.71;68.40;99280.11;345540;118;1961929;-70
2021/03/21 05:16:23;;;;;;;12.57;7.02;;;;;;;-1.65;68.19;99272.44;354146;110;1960765;-70
2021/03/21 05:18:01;;;;;;;12.75;7.42;;;;;;;-1.56;67.67;99279.57;339800;110;2387408;-70
2021/03/21 05:19:19;;;;;;;14.50;6.99;;;;;;;-1.52;67.52;99289.88;362461;111;1961973;-70
2021/03/21 05:20:37;;;;;;;12.59;6.69;;;;;;;-1.51;67.31;99275.66;364735;111;1961930;-69
2021/03/21 05:21:52;;;;;;;11.17;6.19;;;;;;;-1.42;66.90;99296.86;332908;109;1960794;-72
2021/03/21 05:23:35;;;;;;;14.89;6.84;;;;;;;-1.33;66.57;99292.53;347230;116;1962009;-72
2021/03/21 05:24:44;;;;;;;10.68;6.89;;;;;;;-1.30;66.26;99294.90;332944;115;2257982;-72
2021/03/21 05:26:02;;;;;;;12.17;6.74;;;;;;;-1.18;66.38;99285.02;308310;116;2772938;-74
2021/03/21 05:27:14;;;;;;;12.81;7.51;;;;;;;-1.11;66.04;99286.13;338660;117;1962046;-72
2021/03/21 05:28:58;;;;;;;12.87;6.92;;;;;;;-1.05;65.90;99277.61;343881;116;1964912;-72
2021/03/21 05:30:20;;;;;;;15.34;7.66;;;;;;;-1.00;65.48;99291.28;343528;114;1961956;-72
2021/03/21 05:31:27;;;;;;;12.44;6.89;;;;;;;-1.05;65.37;99282.08;348876;111;1963963;-71
2021/03/21 05:32:33;;;;;;;13.52;7.63;;;;;;;-1.00;65.58;99277.19;347107;116;1962871;-70
2021/03/21 05:33:41;;;;;;;14.28;7.63;;;;;;;-0.98;65.29;99291.12;318163;114;2598026;-71